createdAt,value
2023-02-02T00:00:58.443Z,44.78
2023-02-02T00:03:24.797Z,45.52
2023-02-02T00:05:51.189Z,46.07
2023-02-02T00:08:17.589Z,45.74
2023-02-02T00:10:43.951Z,46.22
2023-02-02T00:13:10.286Z,46.95
2023-02-02T00:15:36.680Z,46.13
2023-02-02T00:18:03.030Z,47.33
2023-02-02T00:20:29.416Z,47.79
2023-02-02T00:22:55.808Z,48.11
2023-02-02T00:25:22.445Z,48.24
2023-02-02T00:27:48.960Z,48.47
2023-02-02T00:30:15.351Z,47.85
2023-02-02T00:32:41.690Z,47.92
2023-02-02T00:35:08.069Z,47.89
2023-02-02T00:37:34.479Z,47.78
2023-02-02T00:40:00.863Z,47.69
2023-02-02T00:42:27.229Z,46.89
2023-02-02T00:44:53.558Z,47.72
2023-02-02T00:47:19.901Z,48.42
2023-02-02T00:49:46.272Z,48.36
2023-02-02T00:52:12.629Z,47.42
2023-02-02T00:54:39.016Z,47.57
2023-02-02T00:57:05.404Z,47.47
2023-02-02T00:59:31.765Z,48.71
2023-02-02T01:01:58.201Z,47.78
2023-02-02T01:04:24.627Z,48.12
2023-02-02T01:06:50.982Z,47.69
2023-02-02T01:09:17.359Z,48.21
2023-02-02T01:11:43.737Z,47.93
2023-02-02T01:14:10.088Z,47.26
2023-02-02T01:16:36.472Z,46.81
2023-02-02T01:19:02.832Z,47.07
2023-02-02T01:21:29.186Z,45.69
2023-02-02T01:23:55.576Z,43.62
2023-02-02T01:26:21.940Z,43.04
2023-02-02T01:28:48.297Z,41.91
2023-02-02T01:31:14.669Z,42.30
2023-02-02T01:33:41.015Z,41.42
2023-02-02T01:36:07.403Z,41.92
2023-02-02T01:38:33.751Z,42.55
2023-02-02T01:41:00.139Z,43.23
2023-02-02T01:43:26.527Z,43.32
2023-02-02T01:45:52.940Z,43.76
2023-02-02T01:48:19.346Z,42.12
2023-02-02T01:50:45.723Z,41.73
2023-02-02T01:53:12.056Z,41.22
2023-02-02T01:55:38.447Z,40.97
2023-02-02T01:58:04.792Z,41.62
2023-02-02T02:00:31.127Z,41.37
2023-02-02T02:02:57.508Z,41.91
2023-02-02T02:05:24.082Z,40.96
2023-02-02T02:07:50.607Z,41.67
2023-02-02T02:10:16.997Z,40.27
2023-02-02T02:12:43.332Z,40.60
2023-02-02T02:15:09.714Z,40.82
2023-02-02T02:17:36.100Z,40.60
2023-02-02T02:20:02.481Z,40.83
2023-02-02T02:22:28.840Z,41.24
2023-02-02T02:24:55.205Z,41.10
2023-02-02T02:27:21.604Z,41.14
2023-02-02T02:29:48.094Z,40.46
2023-02-02T02:32:14.449Z,40.52
2023-02-02T02:34:40.788Z,40.14
2023-02-02T02:37:07.112Z,40.90
2023-02-02T02:39:33.444Z,41.04
2023-02-02T02:41:59.819Z,40.90
2023-02-02T02:44:26.220Z,41.69
2023-02-02T02:46:52.592Z,42.21
2023-02-02T02:49:18.967Z,42.06
2023-02-02T02:51:45.355Z,43.56
2023-02-02T02:54:11.707Z,44.20
2023-02-02T02:56:38.107Z,44.06
2023-02-02T02:59:04.531Z,44.79
2023-02-02T03:01:30.927Z,45.71
2023-02-02T03:03:57.342Z,44.66
2023-02-02T03:06:23.735Z,44.29
2023-02-02T03:08:50.106Z,44.85
2023-02-02T03:11:16.452Z,45.49
2023-02-02T03:13:42.785Z,45.39
2023-02-02T03:16:09.144Z,45.95
2023-02-02T03:18:35.543Z,46.16
2023-02-02T03:21:01.890Z,45.77
2023-02-02T03:23:28.227Z,46.69
2023-02-02T03:25:54.553Z,46.88
2023-02-02T03:28:20.959Z,45.87
2023-02-02T03:30:47.349Z,45.83
2023-02-02T03:33:13.727Z,45.00
2023-02-02T03:35:40.105Z,44.81
2023-02-02T03:38:06.445Z,44.44
2023-02-02T03:40:32.764Z,45.05
2023-02-02T03:42:59.137Z,45.62
2023-02-02T03:45:25.838Z,46.17
2023-02-02T03:47:52.390Z,46.79
2023-02-02T03:50:18.717Z,46.38
2023-02-02T03:52:45.114Z,47.95
2023-02-02T03:55:11.452Z,46.90
2023-02-02T03:57:37.791Z,47.04
2023-02-02T04:00:04.168Z,46.88
2023-02-02T04:02:30.591Z,46.15
2023-02-02T04:04:56.992Z,45.32
2023-02-02T04:07:23.342Z,45.34
2023-02-02T04:09:49.678Z,45.19
2023-02-02T04:12:16.058Z,45.50
2023-02-02T04:14:42.433Z,46.44
2023-02-02T04:17:08.826Z,46.31
2023-02-02T04:19:35.217Z,46.67
2023-02-02T04:22:01.616Z,47.41
2023-02-02T04:24:27.994Z,47.11
2023-02-02T04:26:54.366Z,45.90
2023-02-02T04:29:20.729Z,46.74
2023-02-02T04:31:47.119Z,47.24
2023-02-02T04:34:13.528Z,47.35
2023-02-02T04:36:40.015Z,46.49
2023-02-02T04:39:06.396Z,46.05
2023-02-02T04:41:32.746Z,46.59
2023-02-02T04:43:59.095Z,46.15
2023-02-02T04:46:25.485Z,46.82
2023-02-02T04:48:51.840Z,47.02
2023-02-02T04:51:18.191Z,46.83
2023-02-02T04:53:44.569Z,45.47
2023-02-02T04:56:10.931Z,46.16
2023-02-02T04:58:37.313Z,46.58
2023-02-02T05:01:03.701Z,46.66
2023-02-02T05:03:30.137Z,46.38
2023-02-02T05:05:56.494Z,46.51
2023-02-02T05:08:22.859Z,46.81
2023-02-02T05:10:49.263Z,47.14
2023-02-02T05:13:15.647Z,47.44
2023-02-02T05:15:42.033Z,46.83
2023-02-02T05:18:08.378Z,46.60
2023-02-02T05:20:34.763Z,46.23
2023-02-02T05:23:01.107Z,46.41
2023-02-02T05:25:27.622Z,46.55
2023-02-02T05:27:54.128Z,46.96
2023-02-02T05:30:20.530Z,46.52
2023-02-02T05:32:46.931Z,46.69
2023-02-02T05:35:13.293Z,46.32
2023-02-02T05:37:39.696Z,45.86
2023-02-02T05:40:06.092Z,46.03
2023-02-02T05:42:32.470Z,45.80
2023-02-02T05:44:58.822Z,45.86
2023-02-02T05:47:25.166Z,46.67
2023-02-02T05:49:51.561Z,46.44
2023-02-02T05:52:17.968Z,45.92
2023-02-02T05:54:44.424Z,47.20
2023-02-02T05:57:10.857Z,48.13
2023-02-02T05:59:37.257Z,49.13
2023-02-02T06:02:03.630Z,47.86
2023-02-02T06:04:30.021Z,47.06
2023-02-02T06:06:56.407Z,47.17
2023-02-02T06:09:22.774Z,47.87
2023-02-02T06:11:49.165Z,48.12
2023-02-02T06:14:15.557Z,47.00
2023-02-02T06:16:41.968Z,47.06
2023-02-02T06:19:08.375Z,46.80
2023-02-02T06:21:34.797Z,45.95
2023-02-02T06:24:01.192Z,45.80
2023-02-02T06:26:27.631Z,45.45
2023-02-02T06:28:53.999Z,45.96
2023-02-02T06:31:20.483Z,46.48
2023-02-02T06:33:46.956Z,46.50
2023-02-02T06:36:13.311Z,46.82
2023-02-02T06:38:39.692Z,48.32
2023-02-02T06:41:06.081Z,49.13
2023-02-02T06:43:32.466Z,48.32
2023-02-02T06:45:58.910Z,47.91
2023-02-02T06:48:25.323Z,47.47
2023-02-02T06:50:51.705Z,47.46
2023-02-02T06:53:18.061Z,47.63
2023-02-02T06:55:44.449Z,47.69
2023-02-02T06:58:10.845Z,49.15
2023-02-02T07:00:37.195Z,48.45
2023-02-02T07:03:03.596Z,49.06
2023-02-02T07:05:30.895Z,48.51
2023-02-02T07:07:57.473Z,48.16
2023-02-02T07:11:11.331Z,47.20
2023-02-02T07:13:10.239Z,47.30
2023-02-02T07:15:36.655Z,48.61
2023-02-02T07:18:03.135Z,48.75
2023-02-02T07:20:29.596Z,47.86
2023-02-02T07:22:56.046Z,47.77
2023-02-02T07:25:22.563Z,46.80
2023-02-02T07:27:49.056Z,46.72
2023-02-02T07:30:15.430Z,47.58
2023-02-02T07:32:41.825Z,47.07
2023-02-02T07:35:08.178Z,48.35
2023-02-02T07:37:34.563Z,48.49
2023-02-02T07:40:00.922Z,47.77
2023-02-02T07:42:27.270Z,46.90
2023-02-02T07:44:53.644Z,46.44
2023-02-02T07:47:20.035Z,46.36
2023-02-02T07:49:46.420Z,45.41
2023-02-02T07:52:12.774Z,46.45
2023-02-02T07:54:39.119Z,45.46
2023-02-02T07:57:05.521Z,45.60
2023-02-02T07:59:32.542Z,45.72
2023-02-02T08:01:59.008Z,45.62
2023-02-02T08:04:25.408Z,46.11
2023-02-02T08:06:51.781Z,46.39
2023-02-02T08:09:18.175Z,47.01
2023-02-02T08:11:44.536Z,48.35
2023-02-02T08:14:10.893Z,47.43
2023-02-02T08:16:37.371Z,46.13
2023-02-02T08:19:03.882Z,45.16
2023-02-02T08:21:30.231Z,45.33
2023-02-02T08:23:56.581Z,46.49
2023-02-02T08:26:23.048Z,45.91
2023-02-02T08:28:49.437Z,45.31
2023-02-02T08:31:15.832Z,44.76
2023-02-02T08:33:42.286Z,45.16
2023-02-02T08:36:08.743Z,44.76
2023-02-02T08:38:35.131Z,44.44
2023-02-02T08:41:01.552Z,44.48
2023-02-02T08:43:27.907Z,44.52
2023-02-02T08:46:04.399Z,44.75
2023-02-02T08:48:31.535Z,44.97
2023-02-02T08:50:58.142Z,45.23
2023-02-02T08:53:24.529Z,44.58
2023-02-02T08:55:50.873Z,43.98
2023-02-02T08:58:17.253Z,44.39
2023-02-02T09:00:43.650Z,45.04
2023-02-02T09:03:10.032Z,44.85
2023-02-02T09:05:36.396Z,43.56
2023-02-02T09:08:02.782Z,43.56
2023-02-02T09:10:29.170Z,44.97
2023-02-02T09:12:55.521Z,44.04
2023-02-02T09:15:22.061Z,43.58
2023-02-02T09:17:48.597Z,44.07
2023-02-02T09:20:15.032Z,44.15
2023-02-02T09:22:41.420Z,43.58
2023-02-02T09:25:07.784Z,42.85
2023-02-02T09:27:34.153Z,43.34
2023-02-02T09:30:00.539Z,42.24
2023-02-02T09:32:26.907Z,42.79
2023-02-02T09:34:53.297Z,42.28
2023-02-02T09:37:19.662Z,42.04
2023-02-02T09:39:46.049Z,41.78
2023-02-02T09:42:12.410Z,42.99
2023-02-02T09:44:38.815Z,41.79
2023-02-02T09:47:05.212Z,41.87
2023-02-02T09:49:31.565Z,42.04
2023-02-02T09:51:57.909Z,41.67
2023-02-02T09:54:24.286Z,42.02
2023-02-02T09:56:50.696Z,42.04
2023-02-02T09:59:20.986Z,41.75
2023-02-02T10:01:48.203Z,41.19
2023-02-02T10:04:14.617Z,40.83
2023-02-02T10:06:41.073Z,41.11
2023-02-02T10:09:07.466Z,41.31
2023-02-02T10:11:33.842Z,40.89
2023-02-02T10:14:00.234Z,40.92
2023-02-02T10:16:26.577Z,40.84
2023-02-02T10:18:52.926Z,41.65
2023-02-02T10:21:19.308Z,39.95
2023-02-02T10:23:45.684Z,39.50
2023-02-02T10:26:12.081Z,40.25
2023-02-02T10:28:38.477Z,39.89
2023-02-02T10:31:04.931Z,40.27
2023-02-02T10:33:31.334Z,39.25
2023-02-02T10:35:57.717Z,39.79
2023-02-02T10:38:24.068Z,39.88
2023-02-02T10:40:50.454Z,39.44
2023-02-02T10:43:16.818Z,39.89
2023-02-02T10:45:43.149Z,40.42
2023-02-02T10:48:09.524Z,41.44
2023-02-02T10:50:35.926Z,42.41
2023-02-02T10:53:02.328Z,42.32
2023-02-02T10:55:28.702Z,41.78
2023-02-02T10:57:55.091Z,42.04
2023-02-02T11:00:23.149Z,41.39
2023-02-02T11:02:49.906Z,41.33
2023-02-02T11:05:16.375Z,41.36
2023-02-02T11:07:42.720Z,41.23
2023-02-02T11:10:09.109Z,43.07
2023-02-02T11:12:35.503Z,41.89
2023-02-02T11:15:01.856Z,42.12
2023-02-02T11:17:28.259Z,41.69
2023-02-02T11:19:54.610Z,41.04
2023-02-02T11:22:20.996Z,41.68
2023-02-02T11:24:47.377Z,42.05
2023-02-02T11:27:13.750Z,43.62
2023-02-02T11:29:40.101Z,42.38
2023-02-02T11:32:06.490Z,42.28
2023-02-02T11:34:32.896Z,43.42
2023-02-02T11:36:59.258Z,44.24
2023-02-02T11:39:25.649Z,43.36
2023-02-02T11:41:52.040Z,42.16
2023-02-02T11:44:18.390Z,41.74
2023-02-02T11:46:44.852Z,41.65
2023-02-02T11:49:11.273Z,41.68
2023-02-02T11:51:37.628Z,42.00
2023-02-02T11:54:03.971Z,41.91
2023-02-02T11:56:30.319Z,42.77
2023-02-02T11:58:56.676Z,44.93
2023-02-02T12:01:23.022Z,43.97
2023-02-02T12:03:49.454Z,43.10
2023-02-02T12:06:15.843Z,41.64
2023-02-02T12:08:42.223Z,41.76
2023-02-02T12:11:08.628Z,40.51
2023-02-02T12:13:34.975Z,40.72
2023-02-02T12:16:01.546Z,40.42
2023-02-02T12:18:27.978Z,41.42
2023-02-02T12:20:54.340Z,41.60
2023-02-02T12:23:20.681Z,40.93
2023-02-02T12:25:47.050Z,41.74
2023-02-02T12:28:13.443Z,42.21
2023-02-02T12:30:39.838Z,42.70
2023-02-02T12:33:06.271Z,43.52
2023-02-02T12:35:32.623Z,42.79
2023-02-02T12:37:58.963Z,44.40
2023-02-02T12:40:25.621Z,44.60
2023-02-02T12:42:52.183Z,44.27
2023-02-02T12:45:18.649Z,43.70
2023-02-02T12:47:44.985Z,43.94
2023-02-02T12:50:11.384Z,42.48
2023-02-02T12:52:37.777Z,40.91
2023-02-02T12:55:04.139Z,39.97
2023-02-02T12:57:30.940Z,40.53
2023-02-02T12:59:57.316Z,40.14
2023-02-02T13:02:23.722Z,40.56
2023-02-02T13:04:52.875Z,38.75
2023-02-02T13:07:19.172Z,40.29
2023-02-02T13:09:45.473Z,39.96
2023-02-02T13:12:11.767Z,39.10
2023-02-02T13:14:38.052Z,40.23
2023-02-02T13:17:04.339Z,40.74
2023-02-02T13:19:30.631Z,41.11
2023-02-02T13:21:56.939Z,39.44
2023-02-02T13:24:23.220Z,39.89
2023-02-02T13:26:49.593Z,39.76
2023-02-02T13:29:15.946Z,40.46
2023-02-02T13:31:42.300Z,40.11
2023-02-02T13:34:08.665Z,40.56
2023-02-02T13:36:34.953Z,39.14
2023-02-02T13:39:01.263Z,39.70
2023-02-02T13:41:27.757Z,40.73
2023-02-02T13:43:54.044Z,40.20
2023-02-02T13:46:20.384Z,39.95
2023-02-02T13:48:46.704Z,38.71
2023-02-02T13:51:13.005Z,39.16
2023-02-02T13:53:39.316Z,38.35
2023-02-02T13:56:05.612Z,37.59
2023-02-02T13:58:31.926Z,38.62
2023-02-02T14:00:58.240Z,38.50
2023-02-02T14:03:24.561Z,38.63
2023-02-02T14:05:50.890Z,38.65
2023-02-02T14:08:17.187Z,38.14
2023-02-02T14:10:43.487Z,37.42
2023-02-02T14:13:09.786Z,37.70
2023-02-02T14:15:36.091Z,37.44
2023-02-02T14:18:02.400Z,38.42
2023-02-02T14:20:28.697Z,37.82
2023-02-02T14:22:54.994Z,36.56
2023-02-02T14:25:21.291Z,37.09
2023-02-02T14:27:47.577Z,36.22
2023-02-02T14:30:13.864Z,36.82
2023-02-02T14:32:40.157Z,36.97
2023-02-02T14:35:06.455Z,35.85
2023-02-02T14:37:32.738Z,35.30
2023-02-02T14:39:59.132Z,35.50
2023-02-02T14:42:25.434Z,36.37
2023-02-02T14:44:51.720Z,36.36
2023-02-02T14:47:18.011Z,36.28
2023-02-02T14:49:44.310Z,36.27
2023-02-02T14:52:10.898Z,36.24
2023-02-02T14:54:37.213Z,36.84
2023-02-02T14:57:03.504Z,36.04
2023-02-02T14:59:29.788Z,36.24
2023-02-02T15:01:56.181Z,36.64
2023-02-02T15:04:22.499Z,35.92
2023-02-02T15:06:48.781Z,36.76
2023-02-02T15:09:15.135Z,36.44
2023-02-02T15:11:41.441Z,34.71
2023-02-02T15:14:07.729Z,33.96
2023-02-02T15:16:34.009Z,34.55
2023-02-02T15:19:00.300Z,34.65
2023-02-02T15:21:26.595Z,35.04
2023-02-02T15:23:52.884Z,34.27
2023-02-02T15:26:19.209Z,33.94
2023-02-02T15:28:45.548Z,34.73
2023-02-02T15:31:12.010Z,34.64
2023-02-02T15:33:38.376Z,33.78
2023-02-02T15:36:04.684Z,34.34
2023-02-02T15:38:30.969Z,34.09
2023-02-02T15:40:57.255Z,33.23
2023-02-02T15:43:23.531Z,33.82
2023-02-02T15:45:49.838Z,33.94
2023-02-02T15:48:16.143Z,34.27
2023-02-02T15:50:42.442Z,35.90
2023-02-02T15:53:08.726Z,36.06
2023-02-02T15:55:35.012Z,36.16
2023-02-02T15:58:01.319Z,35.28
2023-02-02T16:00:27.692Z,36.06
2023-02-02T16:02:54.072Z,35.44
2023-02-02T16:05:20.350Z,35.34
2023-02-02T16:07:53.201Z,35.80
2023-02-02T16:10:22.577Z,35.64
2023-02-02T16:12:48.871Z,36.17
2023-02-02T16:15:15.166Z,36.07
2023-02-02T16:17:41.461Z,36.39
2023-02-02T16:20:07.748Z,37.04
2023-02-02T16:22:34.040Z,36.32
2023-02-02T16:25:00.327Z,36.96
2023-02-02T16:27:26.621Z,36.29
2023-02-02T16:29:52.915Z,36.47
2023-02-02T16:32:19.216Z,37.38
2023-02-02T16:34:46.728Z,37.04
2023-02-02T16:37:13.359Z,37.12
2023-02-02T16:39:39.665Z,36.81
2023-02-02T16:42:05.945Z,38.06
2023-02-02T16:44:32.253Z,38.37
2023-02-02T16:46:58.549Z,38.61
2023-02-02T16:49:24.833Z,38.45
2023-02-02T16:51:51.248Z,38.55
2023-02-02T16:54:17.572Z,38.39
2023-02-02T16:56:43.865Z,37.97
2023-02-02T16:59:10.161Z,38.03
2023-02-02T17:01:36.474Z,38.58
2023-02-02T17:04:02.779Z,38.16
2023-02-02T17:06:38.395Z,38.87
2023-02-02T17:09:12.420Z,39.46
2023-02-02T17:11:38.771Z,38.98
2023-02-02T17:14:05.090Z,39.04
2023-02-02T17:16:31.395Z,39.32
2023-02-02T17:18:57.716Z,39.01
2023-02-02T17:21:24.030Z,39.18
2023-02-02T17:23:50.332Z,39.17
2023-02-02T17:26:16.617Z,39.42
2023-02-02T17:28:42.908Z,39.81
2023-02-02T17:31:09.291Z,40.47
2023-02-02T17:33:35.718Z,40.69
2023-02-02T17:36:02.008Z,42.29
2023-02-02T17:38:28.295Z,42.89
2023-02-02T17:40:54.601Z,43.38
2023-02-02T17:43:20.923Z,43.62
2023-02-02T17:45:47.305Z,43.59
2023-02-02T17:48:13.623Z,43.47
2023-02-02T17:50:39.924Z,43.67
2023-02-02T17:53:06.216Z,44.41
2023-02-02T17:55:32.546Z,44.96
2023-02-02T17:57:58.860Z,44.62
2023-02-02T18:00:25.339Z,43.98
2023-02-02T18:02:51.844Z,42.91
2023-02-02T18:05:18.159Z,43.04
2023-02-02T18:07:44.469Z,43.05
2023-02-02T18:10:10.773Z,43.21
2023-02-02T18:12:37.073Z,43.16
2023-02-02T18:15:03.367Z,42.80
2023-02-02T18:17:29.657Z,42.76
2023-02-02T18:19:55.956Z,42.59
2023-02-02T18:22:22.276Z,42.76
2023-02-02T18:24:48.599Z,41.85
2023-02-02T18:27:15.050Z,41.73
2023-02-02T18:29:41.351Z,42.40
2023-02-02T18:32:07.720Z,42.32
2023-02-02T18:34:34.038Z,41.87
2023-02-02T18:37:00.355Z,41.93
2023-02-02T18:39:26.656Z,41.92
2023-02-02T18:41:52.980Z,42.04
2023-02-02T18:44:19.424Z,42.08
2023-02-02T18:46:45.957Z,41.78
2023-02-02T18:49:12.324Z,41.58
2023-02-02T18:51:38.642Z,42.13
2023-02-02T18:54:04.958Z,42.91
2023-02-02T18:56:31.279Z,42.86
2023-02-02T18:58:57.577Z,42.09
2023-02-02T19:01:23.958Z,42.65
2023-02-02T19:03:50.293Z,42.39
2023-02-02T19:06:16.638Z,43.19
2023-02-02T19:08:42.925Z,44.26
2023-02-02T19:11:09.236Z,43.62
2023-02-02T19:13:35.538Z,43.65
2023-02-02T19:16:01.844Z,43.78
2023-02-02T19:18:28.192Z,43.58
2023-02-02T19:20:54.482Z,43.32
2023-02-02T19:23:20.776Z,43.81
2023-02-02T19:25:48.895Z,42.49
2023-02-02T19:28:17.093Z,42.79
2023-02-02T19:30:43.411Z,43.35
2023-02-02T19:33:09.717Z,42.77
2023-02-02T19:35:36.012Z,43.49
2023-02-02T19:38:02.329Z,43.34
2023-02-02T19:40:28.889Z,42.70
2023-02-02T19:42:55.309Z,42.83
2023-02-02T19:45:21.601Z,44.70
2023-02-02T19:47:47.880Z,44.77
2023-02-02T19:50:14.195Z,44.36
2023-02-02T19:52:40.480Z,45.44
2023-02-02T19:55:06.769Z,44.56
2023-02-02T19:57:33.073Z,45.14
2023-02-02T19:59:59.367Z,44.27
2023-02-02T20:02:25.669Z,44.05
2023-02-02T20:04:51.965Z,43.84
2023-02-02T20:07:18.276Z,43.75
2023-02-02T20:09:44.563Z,43.46
2023-02-02T20:12:10.847Z,43.87
2023-02-02T20:14:37.233Z,43.42
2023-02-02T20:17:03.738Z,43.30
2023-02-02T20:19:30.039Z,43.06
2023-02-02T20:21:56.343Z,43.38
2023-02-02T20:24:22.657Z,43.03
2023-02-02T20:26:49.094Z,43.56
2023-02-02T20:29:15.414Z,42.81
2023-02-02T20:31:41.730Z,43.58
2023-02-02T20:34:08.989Z,44.06
2023-02-02T20:36:35.316Z,43.41
2023-02-02T20:39:01.616Z,43.43
2023-02-02T20:41:27.945Z,44.44
2023-02-02T20:43:54.240Z,45.06
2023-02-02T20:46:20.691Z,44.13
2023-02-02T20:48:47.040Z,43.84
2023-02-02T20:51:13.345Z,44.01
2023-02-02T20:53:39.843Z,43.40
2023-02-02T20:56:06.149Z,43.41
2023-02-02T20:58:32.486Z,43.15
2023-02-02T21:00:58.809Z,43.64
2023-02-02T21:03:26.926Z,44.10
2023-02-02T21:06:04.620Z,44.01
2023-02-02T21:08:33.454Z,45.21
2023-02-02T21:10:59.960Z,44.79
2023-02-02T21:13:26.251Z,45.35
2023-02-02T21:15:52.569Z,45.74
2023-02-02T21:18:18.877Z,47.27
2023-02-02T21:20:45.192Z,47.64
2023-02-02T21:23:11.668Z,47.24
2023-02-02T21:25:37.985Z,46.92
2023-02-02T21:28:04.467Z,47.09
2023-02-02T21:30:31.178Z,45.99
2023-02-02T21:32:57.650Z,45.08
2023-02-02T21:35:23.957Z,45.70
2023-02-02T21:37:50.249Z,45.66
2023-02-02T21:40:16.532Z,45.57
2023-02-02T21:42:42.815Z,45.52
2023-02-02T21:45:09.124Z,46.55
2023-02-02T21:47:35.518Z,46.59
2023-02-02T21:50:01.874Z,47.20
2023-02-02T21:52:28.196Z,46.22
2023-02-02T21:54:54.497Z,46.27
2023-02-02T21:57:20.802Z,46.90
2023-02-02T21:59:47.104Z,46.10
2023-02-02T22:02:13.393Z,46.69
2023-02-02T22:04:39.749Z,45.53
2023-02-02T22:07:06.054Z,46.89
2023-02-02T22:09:32.339Z,46.54
2023-02-02T22:11:58.653Z,45.74
2023-02-02T22:14:24.972Z,46.58
2023-02-02T22:16:51.266Z,46.37
2023-02-02T22:19:17.552Z,46.66
2023-02-02T22:21:43.893Z,46.61
2023-02-02T22:24:10.189Z,47.49
2023-02-02T22:26:36.487Z,47.26
2023-02-02T22:29:02.785Z,47.24
2023-02-02T22:31:29.209Z,46.96
2023-02-02T22:33:55.695Z,47.22
2023-02-02T22:36:21.994Z,46.14
2023-02-02T22:38:48.274Z,46.58
2023-02-02T22:41:14.589Z,47.23
2023-02-02T22:43:40.916Z,46.60
2023-02-02T22:46:07.349Z,46.46
2023-02-02T22:48:33.687Z,47.46
2023-02-02T22:50:59.966Z,48.24
2023-02-02T22:53:26.281Z,47.61
2023-02-02T22:55:52.570Z,48.75
2023-02-02T22:58:19.114Z,48.71
2023-02-02T23:00:45.398Z,48.15
2023-02-02T23:03:11.705Z,48.21
2023-02-02T23:05:38.028Z,48.12
2023-02-02T23:08:04.340Z,49.22
2023-02-02T23:10:30.648Z,48.92
2023-02-02T23:12:56.958Z,49.44
2023-02-02T23:15:23.291Z,49.09
2023-02-02T23:17:49.599Z,50.15
2023-02-02T23:20:15.920Z,49.71
2023-02-02T23:22:42.258Z,48.83
2023-02-02T23:25:08.568Z,48.65
2023-02-02T23:27:34.871Z,47.56
2023-02-02T23:30:01.188Z,48.00
2023-02-02T23:32:27.648Z,47.26
2023-02-02T23:34:53.955Z,46.20
2023-02-02T23:37:20.261Z,46.50
2023-02-02T23:39:46.552Z,46.70
2023-02-02T23:42:12.847Z,46.87
2023-02-02T23:44:39.142Z,47.95
2023-02-02T23:47:05.450Z,48.65
2023-02-02T23:49:31.747Z,49.30
2023-02-02T23:51:58.047Z,49.11
2023-02-02T23:54:24.369Z,48.39
2023-02-02T23:56:50.673Z,48.96
2023-02-02T23:59:16.976Z,49.91
